COOK1: Arkansas River Nr Coolidge, KS

                                SHEF ID:       COOK1     ARKANSAS R NR COOLIDGE, KS
STATION TYPE:
Regulating: Stage = 8.00, Flow = 2026

PRECIP STAGE STAGE(2) RIV-FLOW WTR-TEMP CONDUCT BAT-LOAD
in ft ft cfs F umho/cm volt
Ccp-Rev Ccp-Rev Ccp-Rev Ccp-Rev Ccp-Rev Ccp-Rev Ccp-Rev
(America/Chicago)
07/20 00:00 0.00 4.53 4.65 370 79.05 3298 12.89
07/20 01:00 0.00 4.54 4.67 373 78.51 3294 12.89
07/20 02:00 0.00 4.53 4.67 370 77.49 3276 12.89
07/20 03:00 0.00 4.55 4.66 376 76.66 3260 12.89
07/20 04:00 0.00 4.55 4.70 376 75.87 3276 12.83
07/20 05:00 0.00 4.56 4.69 378 75.07 3321 12.83
07/20 06:00 0.00 4.58 4.73 384 74.46 3341 12.77
07/20 07:00 0.00 4.60 4.74 389 73.72 3314 12.77
07/20 08:00 0.00 4.58 4.76 384 73.09 3249 12.83
07/20 09:00 0.00 4.60 4.75 389 72.88 3247 12.89
07/20 10:00 0.00 4.60 4.74 389 73.20 3249 13.12
07/20 11:00 0.00 4.62 4.75 394 73.96 3265 13.59
07/20 12:00 0.00 4.62 4.75 394 74.97 3278 13.71
07/20 13:00 0.00 4.62 4.74 394 76.21 3287 13.77
07/20 14:00 0.00 4.59 4.76 386 77.58 3289 13.77
07/20 15:00 0.00 4.63 4.75 397 78.84 3285 13.77
07/20 16:00 0.00 4.60 4.73 389 79.74 3298 13.65
07/20 17:00 0.00 4.61 4.73 392 80.55 3305 13.24
07/20 18:00 0.00 4.59 4.69 386 80.80 3307 13.36
07/20 19:00 0.00 4.59 4.69 386 80.91 3301 13.24
07/20 20:00 0.00 4.56 4.70 378 80.58 3303 13.18
07/20 21:00 0.00 4.55 4.69 376 79.93 3308 13.07
07/20 22:00 0.02 4.54 4.68 373 79.45 3298 13.00
07/20 23:00 ---- ---- ---- ---- ---- ---- ----
Data processed at Sun 21Jul2024 04:30 GMT

Parsing this webpage?

Checkout our new Data API! CWMSDataAPI (CDA)

Timeseries IDs (TSIDs)

TSIDs used from left to right in the data table
COOL.Precip-Inc.Total.1Hour.1Hour.Ccp-Rev
COOL.Stage.Inst.1Hour.0.Ccp-Rev
COOL.Stage-Alt.Inst.1Hour.0.Ccp-Rev
COOL.Flow.Inst.1Hour.0.Ccp-Rev
COOL.Temp-Water.Inst.1Hour.0.Ccp-Rev
COOL.Cond.Inst.1Hour.0.Ccp-Rev
COOL.Volt-Battery Load.Inst.1Hour.0.Ccp-Rev

                            

All information presented herein is the property of the government of the United States of America and may be revised or deleted at any time without prior notice. Dissemination of this information without the expressed written consent of the Public Affairs Office, Tulsa District U.S. Army Corps of Engineers is strictly prohibited. These data are gathered electronically and, as presented, have NOT undergone any form of quality control. These data are NOT guaranteed to be valid or correct.